createdAt,value
2023-01-09T00:00:43.772Z,80.93
2023-01-09T00:01:44.222Z,80.66
2023-01-09T00:02:41.369Z,80.73
2023-01-09T00:03:38.083Z,81.53
2023-01-09T00:04:35.115Z,82.19
2023-01-09T00:05:31.715Z,81.67
2023-01-09T00:06:28.641Z,82.23
2023-01-09T00:07:25.289Z,81.50
2023-01-09T00:08:21.963Z,80.54
2023-01-09T00:09:18.604Z,80.19
2023-01-09T00:10:15.571Z,80.04
2023-01-09T00:11:12.217Z,80.64
2023-01-09T00:12:08.885Z,80.51
2023-01-09T00:13:05.578Z,80.39
2023-01-09T00:14:02.322Z,80.24
2023-01-09T00:14:59.066Z,79.82
2023-01-09T00:15:55.723Z,80.53
2023-01-09T00:16:55.434Z,80.07
2023-01-09T00:17:52.171Z,80.81
2023-01-09T00:18:48.830Z,81.42
2023-01-09T00:19:45.478Z,81.70
2023-01-09T00:20:42.084Z,81.83
2023-01-09T00:21:39.050Z,82.79
2023-01-09T00:22:37.197Z,83.14
2023-01-09T00:23:34.080Z,82.68
2023-01-09T00:24:30.696Z,82.57
2023-01-09T00:25:27.374Z,83.64
2023-01-09T00:26:24.050Z,83.59
2023-01-09T00:27:20.743Z,83.39
2023-01-09T00:28:17.472Z,83.92
2023-01-09T00:29:14.320Z,83.39
2023-01-09T00:30:11.797Z,83.20
2023-01-09T00:31:09.209Z,84.31
2023-01-09T00:32:10.135Z,83.64
2023-01-09T00:33:06.808Z,82.20
2023-01-09T00:34:07.285Z,81.74
2023-01-09T00:35:04.258Z,82.58
2023-01-09T00:36:01.162Z,83.49
2023-01-09T00:36:57.838Z,83.34
2023-01-09T00:37:55.113Z,83.33
2023-01-09T00:38:52.097Z,83.21
2023-01-09T00:39:48.759Z,83.43
2023-01-09T00:40:45.521Z,83.67
2023-01-09T00:41:47.019Z,83.14
2023-01-09T00:42:48.960Z,83.71
2023-01-09T00:43:50.212Z,82.58
2023-01-09T00:44:52.702Z,82.10
2023-01-09T00:45:49.321Z,82.82
2023-01-09T00:46:55.357Z,82.87
2023-01-09T00:47:52.813Z,82.66
2023-01-09T00:48:49.989Z,81.97
2023-01-09T00:49:47.995Z,82.79
2023-01-09T00:50:44.747Z,82.74
2023-01-09T00:51:42.157Z,82.23
2023-01-09T00:52:40.439Z,82.21
2023-01-09T00:53:40.288Z,82.86
2023-01-09T00:54:38.075Z,82.31
2023-01-09T00:55:37.547Z,82.49
2023-01-09T00:56:35.937Z,82.80
2023-01-09T00:57:33.083Z,82.78
2023-01-09T00:58:30.033Z,82.65
2023-01-09T00:59:27.630Z,81.96
2023-01-09T01:00:24.496Z,81.37
2023-01-09T01:01:21.658Z,81.27
2023-01-09T01:02:18.516Z,80.47
2023-01-09T01:03:15.728Z,80.94
2023-01-09T01:04:30.663Z,81.01
2023-01-09T01:05:46.149Z,81.10
2023-01-09T01:07:01.192Z,81.72
2023-01-09T01:07:57.863Z,83.46
2023-01-09T01:08:58.253Z,83.43
2023-01-09T01:09:54.835Z,82.97
2023-01-09T01:10:51.428Z,83.70
2023-01-09T01:11:48.042Z,83.55
2023-01-09T01:12:44.972Z,83.23
2023-01-09T01:13:42.105Z,83.14
2023-01-09T01:14:39.040Z,82.91
2023-01-09T01:15:39.244Z,83.08
2023-01-09T01:16:35.947Z,84.04
2023-01-09T01:17:37.380Z,83.91
2023-01-09T01:18:34.119Z,84.38
2023-01-09T01:19:31.250Z,84.75
2023-01-09T01:20:27.896Z,84.72
2023-01-09T01:21:24.664Z,84.93
2023-01-09T01:22:21.307Z,85.00
2023-01-09T01:23:17.969Z,84.75
2023-01-09T01:24:18.222Z,84.52
2023-01-09T01:25:17.266Z,84.29
2023-01-09T01:26:16.167Z,84.00
2023-01-09T01:27:12.933Z,85.01
2023-01-09T01:28:10.539Z,84.23
2023-01-09T01:29:07.248Z,84.56
2023-01-09T01:30:04.896Z,84.72
2023-01-09T01:31:02.291Z,83.98
2023-01-09T01:31:59.030Z,83.90
2023-01-09T01:32:55.695Z,84.44
2023-01-09T01:33:52.406Z,83.91
2023-01-09T01:34:49.045Z,83.96
2023-01-09T01:35:45.690Z,84.60
2023-01-09T01:36:42.357Z,85.09
2023-01-09T01:37:40.144Z,84.79
2023-01-09T01:38:36.876Z,84.67
2023-01-09T01:39:33.600Z,84.45
2023-01-09T01:40:30.612Z,83.99
2023-01-09T01:41:30.797Z,84.12
2023-01-09T01:42:27.524Z,84.62
2023-01-09T01:43:24.225Z,84.46
2023-01-09T01:44:55.011Z,84.38
2023-01-09T01:45:51.688Z,84.60
2023-01-09T01:46:48.391Z,85.14
2023-01-09T01:47:54.022Z,85.63
2023-01-09T01:48:57.764Z,85.25
2023-01-09T01:49:55.228Z,85.23
2023-01-09T01:50:56.961Z,84.84
2023-01-09T01:51:54.235Z,85.23
2023-01-09T01:52:57.968Z,85.15
2023-01-09T01:53:59.461Z,84.78
2023-01-09T01:54:56.320Z,84.43
2023-01-09T01:56:14.844Z,85.11
2023-01-09T01:57:12.251Z,84.79
2023-01-09T01:58:12.313Z,86.08
2023-01-09T01:59:19.534Z,86.55
2023-01-09T02:00:19.036Z,86.66
2023-01-09T02:01:16.023Z,86.56
2023-01-09T02:02:12.805Z,86.91
2023-01-09T02:03:10.629Z,86.98
2023-01-09T02:04:07.575Z,86.69
2023-01-09T02:05:04.922Z,87.00
2023-01-09T02:06:04.512Z,87.56
2023-01-09T02:07:05.628Z,88.61
2023-01-09T02:08:02.302Z,88.43
2023-01-09T02:08:59.045Z,88.34
2023-01-09T02:09:57.295Z,88.03
2023-01-09T02:10:54.880Z,87.81
2023-01-09T02:11:56.461Z,88.35
2023-01-09T02:12:53.127Z,89.10
2023-01-09T02:13:49.908Z,89.90
2023-01-09T02:14:48.004Z,89.83
2023-01-09T02:15:57.002Z,89.95
2023-01-09T02:17:14.649Z,89.69
2023-01-09T02:18:35.195Z,89.65
2023-01-09T02:19:37.358Z,90.00
2023-01-09T02:20:40.893Z,90.45
2023-01-09T02:21:37.647Z,90.16
2023-01-09T02:23:12.899Z,89.79
2023-01-09T02:24:27.067Z,90.02
2023-01-09T02:25:42.293Z,89.89
2023-01-09T02:27:14.231Z,90.25
2023-01-09T02:28:53.348Z,89.48
2023-01-09T02:30:05.171Z,88.78
2023-01-09T02:31:15.550Z,88.61
2023-01-09T02:32:40.584Z,88.37
2023-01-09T02:33:54.270Z,88.63
2023-01-09T02:35:00.808Z,88.99
2023-01-09T02:36:22.329Z,89.30
2023-01-09T02:37:51.979Z,89.39
2023-01-09T02:38:55.499Z,89.81
2023-01-09T02:40:03.150Z,90.32
2023-01-09T02:41:42.513Z,90.33
2023-01-09T02:42:43.122Z,91.96
2023-01-09T02:43:41.226Z,91.85
2023-01-09T02:44:37.877Z,91.69
2023-01-09T02:45:34.702Z,91.32
2023-01-09T02:46:31.487Z,90.85
2023-01-09T02:47:29.431Z,90.80
2023-01-09T02:48:26.049Z,91.36
2023-01-09T02:49:22.724Z,91.77
2023-01-09T02:51:03.850Z,91.91
2023-01-09T02:52:20.297Z,92.13
2023-01-09T02:53:39.887Z,91.68
2023-01-09T02:54:54.534Z,92.33
2023-01-09T02:56:11.425Z,92.83
2023-01-09T02:57:13.764Z,93.26
2023-01-09T02:58:18.684Z,93.74
2023-01-09T02:59:48.300Z,94.00
2023-01-09T03:01:00.479Z,94.55
2023-01-09T03:02:15.931Z,94.56
2023-01-09T03:03:50.116Z,94.44
2023-01-09T03:04:55.998Z,94.56
2023-01-09T03:06:10.816Z,94.83
2023-01-09T03:07:15.578Z,95.37
2023-01-09T03:08:25.632Z,94.91
2023-01-09T03:09:27.607Z,95.24
2023-01-09T03:11:01.899Z,95.00
2023-01-09T03:12:05.873Z,94.90
2023-01-09T03:13:03.605Z,94.74
2023-01-09T03:14:07.224Z,94.75
2023-01-09T03:15:06.815Z,94.06
2023-01-09T03:16:07.995Z,93.96
2023-01-09T03:17:10.384Z,94.44
2023-01-09T03:18:10.645Z,94.55
2023-01-09T03:19:15.838Z,94.51
2023-01-09T03:20:15.956Z,94.80
2023-01-09T03:21:13.399Z,94.50
2023-01-09T03:22:10.159Z,94.42
2023-01-09T03:23:08.400Z,94.76
2023-01-09T03:24:05.605Z,94.89
2023-01-09T03:25:02.414Z,94.67
2023-01-09T03:25:59.181Z,94.20
2023-01-09T03:26:55.870Z,94.37
2023-01-09T03:27:57.053Z,94.21
2023-01-09T03:28:53.761Z,94.15
2023-01-09T03:29:51.355Z,95.09
2023-01-09T03:30:47.955Z,95.41
2023-01-09T03:31:44.667Z,95.51
2023-01-09T03:32:41.359Z,95.77
2023-01-09T03:33:38.256Z,95.73
2023-01-09T03:34:34.897Z,96.08
2023-01-09T03:35:31.535Z,96.40
2023-01-09T03:36:28.177Z,96.43
2023-01-09T03:37:24.831Z,96.56
2023-01-09T03:38:21.582Z,96.65
2023-01-09T03:39:18.256Z,96.71
2023-01-09T03:40:15.182Z,96.65
2023-01-09T03:41:11.952Z,96.94
2023-01-09T03:42:08.538Z,96.90
2023-01-09T03:43:05.238Z,96.62
2023-01-09T03:44:01.852Z,96.92
2023-01-09T03:44:58.519Z,96.59
2023-01-09T03:45:55.231Z,96.34
2023-01-09T03:46:51.984Z,95.94
2023-01-09T03:47:48.696Z,95.61
2023-01-09T03:48:45.364Z,95.44
2023-01-09T03:49:42.065Z,94.97
2023-01-09T03:50:38.783Z,94.82
2023-01-09T03:51:35.459Z,94.57
2023-01-09T03:52:32.598Z,94.07
2023-01-09T03:53:29.412Z,94.00
2023-01-09T03:54:26.169Z,93.53
2023-01-09T03:55:22.812Z,93.03
2023-01-09T03:56:19.562Z,92.01
2023-01-09T03:57:16.219Z,92.19
2023-01-09T03:58:13.911Z,92.03
2023-01-09T03:59:10.533Z,92.27
2023-01-09T04:00:08.609Z,92.03
2023-01-09T04:01:09.470Z,91.71
2023-01-09T04:02:06.627Z,91.35
2023-01-09T04:03:03.309Z,91.83
2023-01-09T04:04:00.082Z,91.92
2023-01-09T04:04:56.718Z,91.93
2023-01-09T04:05:53.394Z,91.74
2023-01-09T04:06:50.082Z,91.75
2023-01-09T04:07:46.817Z,91.99
2023-01-09T04:08:43.775Z,92.00
2023-01-09T04:09:40.361Z,92.60
2023-01-09T04:10:37.060Z,92.53
2023-01-09T04:11:33.792Z,92.74
2023-01-09T04:12:30.460Z,92.54
2023-01-09T04:13:27.124Z,92.57
2023-01-09T04:14:23.774Z,92.67
2023-01-09T04:15:20.567Z,91.89
2023-01-09T04:16:17.268Z,92.02
2023-01-09T04:17:14.003Z,92.30
2023-01-09T04:18:10.589Z,92.32
2023-01-09T04:19:07.283Z,91.65
2023-01-09T04:20:04.412Z,91.94
2023-01-09T04:21:01.060Z,91.58
2023-01-09T04:21:57.637Z,91.34
2023-01-09T04:22:54.401Z,91.34
2023-01-09T04:23:51.047Z,91.53
2023-01-09T04:24:47.692Z,91.72
2023-01-09T04:25:44.390Z,92.22
2023-01-09T04:26:41.074Z,92.23
2023-01-09T04:27:37.887Z,91.35
2023-01-09T04:28:34.561Z,91.06
2023-01-09T04:29:31.217Z,91.10
2023-01-09T04:30:27.974Z,91.19
2023-01-09T04:31:24.679Z,91.48
2023-01-09T04:32:21.419Z,90.62
2023-01-09T04:33:18.057Z,90.53
2023-01-09T04:34:14.709Z,90.76
2023-01-09T04:35:11.399Z,90.32
2023-01-09T04:36:08.396Z,90.13
2023-01-09T04:37:05.041Z,90.08
2023-01-09T04:38:01.614Z,90.09
2023-01-09T04:38:58.239Z,89.71
2023-01-09T04:39:57.727Z,89.68
2023-01-09T04:40:54.582Z,90.20
2023-01-09T04:41:51.385Z,90.63
2023-01-09T04:42:48.014Z,90.96
2023-01-09T04:43:44.827Z,91.10
2023-01-09T04:44:41.548Z,92.01
2023-01-09T04:45:38.252Z,92.05
2023-01-09T04:46:34.889Z,92.59
2023-01-09T04:47:31.743Z,91.82
2023-01-09T04:48:28.469Z,92.41
2023-01-09T04:49:25.944Z,92.35
2023-01-09T04:50:22.748Z,92.67
2023-01-09T04:51:19.494Z,93.02
2023-01-09T04:52:16.155Z,92.67
2023-01-09T04:53:12.825Z,92.68
2023-01-09T04:54:10.063Z,92.89
2023-01-09T04:55:08.262Z,93.02
2023-01-09T04:56:05.248Z,92.91
2023-01-09T04:57:01.962Z,93.53
2023-01-09T04:57:58.686Z,93.02
2023-01-09T04:58:55.514Z,93.44
2023-01-09T04:59:52.858Z,93.31
2023-01-09T05:00:50.201Z,93.14
2023-01-09T05:01:47.303Z,93.17
2023-01-09T05:02:44.090Z,93.10
2023-01-09T05:03:40.789Z,93.36
2023-01-09T05:04:37.601Z,93.14
2023-01-09T05:05:34.279Z,93.54
2023-01-09T05:06:31.528Z,92.98
2023-01-09T05:07:28.281Z,93.37
2023-01-09T05:08:24.865Z,92.95
2023-01-09T05:09:22.358Z,92.93
2023-01-09T05:10:19.012Z,93.38
2023-01-09T05:11:15.956Z,93.41
2023-01-09T05:12:12.618Z,93.29
2023-01-09T05:13:09.329Z,93.23
2023-01-09T05:14:05.922Z,92.99
2023-01-09T05:15:04.334Z,92.99
2023-01-09T05:16:01.023Z,92.81
2023-01-09T05:16:57.627Z,92.45
2023-01-09T05:17:54.441Z,93.26
2023-01-09T05:18:56.509Z,93.23
2023-01-09T05:19:53.345Z,92.83
2023-01-09T05:20:50.013Z,93.20
2023-01-09T05:21:46.634Z,93.21
2023-01-09T05:22:43.193Z,92.79
2023-01-09T05:23:39.969Z,92.37
2023-01-09T05:24:36.651Z,92.89
2023-01-09T05:25:33.299Z,92.58
2023-01-09T05:26:30.036Z,92.01
2023-01-09T05:27:27.376Z,91.11
2023-01-09T05:28:24.105Z,91.11
2023-01-09T05:29:20.843Z,90.80
2023-01-09T05:30:18.444Z,91.19
2023-01-09T05:31:15.196Z,91.73
2023-01-09T05:32:11.936Z,91.61
2023-01-09T05:33:08.835Z,91.38
2023-01-09T05:34:05.505Z,91.31
2023-01-09T05:35:02.175Z,90.97
2023-01-09T05:35:58.828Z,91.94
2023-01-09T05:36:55.479Z,91.84
2023-01-09T05:37:52.153Z,92.05
2023-01-09T05:38:48.854Z,91.76
2023-01-09T05:39:45.492Z,91.64
2023-01-09T05:40:42.150Z,92.25
2023-01-09T05:41:38.975Z,92.65
2023-01-09T05:42:35.579Z,92.79
2023-01-09T05:43:32.334Z,92.93
2023-01-09T05:44:28.996Z,93.43
2023-01-09T05:45:27.253Z,93.68
2023-01-09T05:46:23.931Z,93.94
2023-01-09T05:47:20.666Z,94.00
2023-01-09T05:48:17.544Z,93.36
2023-01-09T05:49:14.236Z,93.36
2023-01-09T05:50:11.790Z,93.33
2023-01-09T05:51:08.532Z,93.44
2023-01-09T05:52:05.524Z,93.39
2023-01-09T05:53:02.252Z,93.16
2023-01-09T05:53:59.387Z,92.98
2023-01-09T05:54:57.256Z,92.94
2023-01-09T05:55:53.941Z,92.66
2023-01-09T05:56:50.568Z,92.90
2023-01-09T05:57:47.284Z,92.91
2023-01-09T05:58:44.019Z,93.24
2023-01-09T05:59:40.699Z,93.76
2023-01-09T06:00:37.415Z,93.36
2023-01-09T06:01:34.209Z,93.73
2023-01-09T06:02:31.145Z,94.03
2023-01-09T06:03:27.848Z,93.83
2023-01-09T06:04:24.821Z,93.37
2023-01-09T06:05:21.449Z,93.32
2023-01-09T06:06:18.095Z,93.09
2023-01-09T06:07:19.888Z,93.32
2023-01-09T06:08:17.955Z,93.56
2023-01-09T06:09:14.554Z,93.93
2023-01-09T06:10:13.128Z,94.11
2023-01-09T06:11:09.797Z,94.30
2023-01-09T06:12:06.802Z,94.32
2023-01-09T06:13:03.442Z,94.53
2023-01-09T06:14:00.170Z,94.49
2023-01-09T06:14:56.778Z,94.57
2023-01-09T06:15:53.589Z,94.88
2023-01-09T06:16:51.059Z,95.34
2023-01-09T06:17:47.753Z,95.45
2023-01-09T06:18:44.768Z,95.13
2023-01-09T06:19:41.417Z,95.10
2023-01-09T06:20:38.029Z,94.95
2023-01-09T06:21:34.662Z,94.79
2023-01-09T06:22:31.304Z,95.25
2023-01-09T06:23:27.953Z,95.22
2023-01-09T06:24:25.255Z,95.33
2023-01-09T06:25:22.140Z,95.06
2023-01-09T06:26:18.792Z,94.16
2023-01-09T06:27:15.399Z,94.25
2023-01-09T06:28:12.199Z,94.35
2023-01-09T06:29:08.997Z,93.57
2023-01-09T06:30:06.481Z,93.30
2023-01-09T06:31:03.329Z,93.33
2023-01-09T06:31:59.945Z,92.83
2023-01-09T06:32:56.691Z,92.29
2023-01-09T06:33:53.651Z,91.99
2023-01-09T06:34:50.254Z,91.89
2023-01-09T06:35:46.957Z,91.35
2023-01-09T06:36:43.601Z,91.24
2023-01-09T06:37:40.186Z,90.98
2023-01-09T06:38:36.853Z,91.67
2023-01-09T06:39:33.530Z,91.36
2023-01-09T06:40:30.124Z,91.55
2023-01-09T06:41:26.811Z,91.51
2023-01-09T06:42:23.398Z,91.78
2023-01-09T06:43:19.981Z,91.56
2023-01-09T06:44:16.678Z,91.62
2023-01-09T06:45:14.048Z,91.52
2023-01-09T06:46:10.658Z,91.67
2023-01-09T06:47:07.288Z,91.39
2023-01-09T06:48:03.970Z,91.20
2023-01-09T06:49:00.704Z,91.14
2023-01-09T06:49:58.255Z,91.21
2023-01-09T06:50:55.198Z,91.78
2023-01-09T06:51:52.219Z,92.26
2023-01-09T06:52:48.788Z,92.39
2023-01-09T06:53:45.427Z,92.44
2023-01-09T06:54:42.123Z,91.26
2023-01-09T06:55:38.802Z,90.84
2023-01-09T06:56:35.433Z,90.51
2023-01-09T06:57:32.100Z,91.10
2023-01-09T06:58:29.245Z,91.09
2023-01-09T06:59:26.329Z,91.64
2023-01-09T07:00:23.051Z,90.77
2023-01-09T07:01:19.727Z,91.47
2023-01-09T07:02:21.027Z,92.05
2023-01-09T07:03:19.953Z,91.54
2023-01-09T07:04:17.942Z,90.96
2023-01-09T07:05:14.672Z,91.42
2023-01-09T07:06:11.371Z,90.42
2023-01-09T07:07:08.001Z,90.79
2023-01-09T07:08:04.782Z,91.37
2023-01-09T07:09:01.547Z,90.33
2023-01-09T07:09:58.198Z,90.73
2023-01-09T07:10:54.856Z,88.95
2023-01-09T07:11:51.487Z,89.18
2023-01-09T07:12:48.136Z,88.96
2023-01-09T07:13:44.787Z,88.68
2023-01-09T07:14:41.733Z,89.21
2023-01-09T07:15:38.462Z,89.15
2023-01-09T07:16:35.189Z,89.78
2023-01-09T07:17:32.790Z,89.29
2023-01-09T07:18:29.433Z,89.19
2023-01-09T07:19:26.172Z,89.31
2023-01-09T07:20:22.808Z,88.33
2023-01-09T07:21:19.457Z,88.15
2023-01-09T07:22:16.314Z,87.83
2023-01-09T07:23:13.311Z,87.83
2023-01-09T07:24:09.944Z,87.60
2023-01-09T07:25:06.747Z,86.59
2023-01-09T07:26:03.787Z,87.39
2023-01-09T07:27:00.402Z,87.33
2023-01-09T07:27:57.004Z,87.29
2023-01-09T07:28:54.614Z,87.57
2023-01-09T07:29:53.438Z,87.00
2023-01-09T07:30:50.137Z,86.27
2023-01-09T07:31:47.018Z,86.74
2023-01-09T07:32:43.730Z,86.59
2023-01-09T07:33:40.493Z,85.64
2023-01-09T07:34:37.190Z,85.94
2023-01-09T07:35:34.174Z,85.80
2023-01-09T07:36:30.880Z,85.99
2023-01-09T07:37:27.472Z,84.94
2023-01-09T07:38:24.058Z,84.64
2023-01-09T07:39:20.805Z,85.31
2023-01-09T07:40:17.604Z,85.21
2023-01-09T07:41:14.265Z,84.05
2023-01-09T07:42:11.544Z,83.85
2023-01-09T07:43:08.144Z,84.44
2023-01-09T07:44:05.126Z,84.24
2023-01-09T07:45:01.820Z,83.99
2023-01-09T07:45:58.428Z,83.44
2023-01-09T07:46:55.060Z,83.27
2023-01-09T07:47:52.396Z,83.13
2023-01-09T07:48:48.980Z,83.23
2023-01-09T07:49:45.595Z,82.54
2023-01-09T07:50:42.251Z,82.02
2023-01-09T07:51:43.076Z,81.69
2023-01-09T07:52:39.728Z,81.16
2023-01-09T07:53:36.447Z,81.08
2023-01-09T07:54:33.099Z,81.20
2023-01-09T07:55:29.829Z,82.33
2023-01-09T07:56:26.544Z,80.75
2023-01-09T07:57:23.118Z,80.11
2023-01-09T07:58:19.762Z,80.38
2023-01-09T07:59:16.433Z,80.45
2023-01-09T08:00:13.523Z,80.06
2023-01-09T08:01:10.262Z,78.37
2023-01-09T08:02:07.377Z,80.20
2023-01-09T08:03:04.938Z,79.92
2023-01-09T08:04:01.526Z,80.26
2023-01-09T08:04:58.291Z,79.22
2023-01-09T08:05:55.063Z,79.28
2023-01-09T08:06:51.680Z,80.43
2023-01-09T08:07:50.679Z,80.10
2023-01-09T08:08:47.341Z,79.85
2023-01-09T08:09:43.900Z,78.90
2023-01-09T08:10:40.792Z,79.32
2023-01-09T08:11:37.427Z,78.67
2023-01-09T08:12:34.061Z,79.90
2023-01-09T08:13:30.768Z,80.07
2023-01-09T08:14:27.493Z,80.40
2023-01-09T08:15:24.228Z,80.94
2023-01-09T08:16:20.994Z,81.06
2023-01-09T08:17:18.352Z,80.32
2023-01-09T08:18:15.112Z,79.75
2023-01-09T08:19:12.334Z,79.95
2023-01-09T08:20:11.942Z,78.64
2023-01-09T08:21:08.624Z,78.16
2023-01-09T08:22:05.238Z,78.40
2023-01-09T08:23:01.921Z,79.66
2023-01-09T08:23:58.838Z,79.65
2023-01-09T08:24:55.893Z,78.67
2023-01-09T08:25:53.573Z,78.38
2023-01-09T08:26:50.105Z,77.74
2023-01-09T08:27:47.250Z,78.26
2023-01-09T08:28:43.994Z,77.57
2023-01-09T08:29:40.651Z,77.18
2023-01-09T08:30:37.221Z,77.54
2023-01-09T08:31:33.851Z,78.06
2023-01-09T08:32:30.466Z,77.77
2023-01-09T08:33:27.418Z,76.34
2023-01-09T08:34:24.075Z,76.19
2023-01-09T08:35:20.882Z,76.26
2023-01-09T08:36:17.542Z,76.80
2023-01-09T08:37:14.145Z,74.99
2023-01-09T08:38:11.202Z,74.51
2023-01-09T08:39:09.054Z,73.56
2023-01-09T08:40:06.148Z,73.92
2023-01-09T08:41:22.725Z,75.39
2023-01-09T08:42:38.737Z,75.92
2023-01-09T08:43:57.021Z,75.80
2023-01-09T08:45:11.950Z,74.33
2023-01-09T08:46:39.801Z,74.64
2023-01-09T08:47:36.766Z,73.09
2023-01-09T08:48:33.446Z,74.22
2023-01-09T08:49:30.071Z,73.60
2023-01-09T08:50:27.346Z,73.06
2023-01-09T08:51:23.948Z,71.73
2023-01-09T08:52:20.574Z,71.08
2023-01-09T08:53:17.198Z,71.39
2023-01-09T08:54:14.031Z,71.66
2023-01-09T08:55:10.742Z,70.31
2023-01-09T08:56:07.724Z,70.20
2023-01-09T08:57:04.570Z,70.57
2023-01-09T08:58:01.695Z,69.52
2023-01-09T08:58:58.410Z,69.09
2023-01-09T08:59:55.074Z,69.12
2023-01-09T09:00:51.891Z,69.14
2023-01-09T09:01:48.604Z,69.38
2023-01-09T09:02:45.457Z,70.08
2023-01-09T09:03:42.119Z,69.35
2023-01-09T09:04:38.796Z,70.37
2023-01-09T09:05:35.472Z,71.28
2023-01-09T09:06:33.313Z,71.56
2023-01-09T09:07:29.986Z,71.20
2023-01-09T09:08:26.605Z,70.05
2023-01-09T09:09:23.331Z,69.28
2023-01-09T09:10:20.758Z,69.24
2023-01-09T09:11:17.348Z,69.96
2023-01-09T09:12:14.048Z,70.66
2023-01-09T09:13:10.728Z,69.77
2023-01-09T09:14:25.807Z,69.39
2023-01-09T09:15:26.658Z,69.87
2023-01-09T09:16:24.767Z,68.93
2023-01-09T09:17:22.669Z,69.29
2023-01-09T09:18:19.323Z,69.02
2023-01-09T09:19:15.947Z,68.64
2023-01-09T09:20:12.626Z,69.39
2023-01-09T09:21:11.559Z,68.19
2023-01-09T09:22:08.424Z,69.01
2023-01-09T09:23:06.622Z,70.12
2023-01-09T09:24:03.242Z,70.58
2023-01-09T09:24:59.880Z,71.47
2023-01-09T09:25:56.513Z,72.41
2023-01-09T09:26:53.276Z,72.91
2023-01-09T09:27:50.360Z,72.67
2023-01-09T09:28:47.302Z,71.54
2023-01-09T09:29:43.925Z,71.02
2023-01-09T09:30:40.515Z,71.30
2023-01-09T09:31:38.714Z,70.70
2023-01-09T09:32:35.902Z,71.15
2023-01-09T09:33:32.686Z,70.47
2023-01-09T09:34:29.532Z,69.71
2023-01-09T09:35:26.209Z,70.51
2023-01-09T09:36:22.897Z,70.07
2023-01-09T09:37:19.579Z,69.64
2023-01-09T09:38:16.291Z,68.55
2023-01-09T09:39:12.974Z,66.96
2023-01-09T09:40:24.121Z,67.75
2023-01-09T09:42:10.560Z,68.32
2023-01-09T09:43:42.601Z,68.17
2023-01-09T09:44:53.764Z,69.74
2023-01-09T09:46:20.558Z,69.59
2023-01-09T09:47:43.588Z,68.48
2023-01-09T09:48:50.185Z,68.88
2023-01-09T09:50:24.323Z,68.43
2023-01-09T09:51:26.855Z,66.58
2023-01-09T09:52:30.650Z,65.66
2023-01-09T09:53:35.336Z,65.83
2023-01-09T09:54:40.801Z,65.93
2023-01-09T09:55:40.525Z,67.05
2023-01-09T09:56:46.030Z,68.29
2023-01-09T09:57:43.958Z,67.85
2023-01-09T09:58:43.888Z,68.98
2023-01-09T09:59:42.149Z,68.51
2023-01-09T10:00:39.350Z,68.30
2023-01-09T10:01:53.241Z,67.40
2023-01-09T10:02:56.982Z,66.79
2023-01-09T10:03:58.778Z,65.53
2023-01-09T10:05:01.980Z,65.92
2023-01-09T10:06:02.780Z,65.93
2023-01-09T10:07:20.534Z,65.29
2023-01-09T10:08:38.188Z,64.67
2023-01-09T10:09:49.728Z,65.11
2023-01-09T10:10:56.209Z,65.98
2023-01-09T10:12:08.265Z,66.57
2023-01-09T10:13:23.760Z,66.26
2023-01-09T10:14:24.180Z,65.94
2023-01-09T10:15:30.862Z,64.06
2023-01-09T10:16:45.984Z,63.44
2023-01-09T10:18:09.365Z,64.17
2023-01-09T10:19:20.848Z,64.04
2023-01-09T10:20:17.443Z,64.59
2023-01-09T10:21:23.340Z,64.75
2023-01-09T10:22:47.910Z,65.40
2023-01-09T10:24:01.618Z,64.38
2023-01-09T10:25:19.525Z,62.92
2023-01-09T10:26:16.132Z,63.09
2023-01-09T10:27:28.037Z,62.80
2023-01-09T10:28:46.212Z,62.59
2023-01-09T10:30:21.586Z,64.18
2023-01-09T10:31:24.033Z,63.96
2023-01-09T10:32:40.991Z,63.90
2023-01-09T10:33:59.073Z,62.89
2023-01-09T10:35:19.325Z,60.55
2023-01-09T10:36:28.785Z,60.47
2023-01-09T10:37:34.208Z,60.73
2023-01-09T10:38:37.949Z,60.34
2023-01-09T10:39:40.401Z,59.73
2023-01-09T10:40:40.323Z,62.03
2023-01-09T10:41:39.894Z,61.68
2023-01-09T10:42:50.660Z,61.57
2023-01-09T10:44:06.004Z,62.07
2023-01-09T10:45:10.895Z,62.87
2023-01-09T10:46:16.456Z,62.85
2023-01-09T10:47:21.560Z,63.29
2023-01-09T10:48:29.861Z,62.39
2023-01-09T10:49:27.469Z,61.84
2023-01-09T10:50:31.114Z,60.66
2023-01-09T10:51:36.206Z,61.52
2023-01-09T10:52:41.723Z,60.62
2023-01-09T10:53:43.426Z,61.46
2023-01-09T10:54:47.335Z,61.46
2023-01-09T10:55:47.844Z,60.14
2023-01-09T10:57:10.805Z,60.44
2023-01-09T10:58:16.164Z,59.54
2023-01-09T10:59:12.906Z,58.64
2023-01-09T11:00:23.634Z,57.62
2023-01-09T11:01:33.605Z,58.36
2023-01-09T11:02:34.181Z,59.72
2023-01-09T11:03:30.939Z,58.22
2023-01-09T11:04:36.551Z,59.55
2023-01-09T11:05:34.125Z,59.75
2023-01-09T11:06:59.911Z,61.79
2023-01-09T11:08:23.097Z,61.96
2023-01-09T11:09:19.780Z,62.38
2023-01-09T11:10:17.478Z,61.86
2023-01-09T11:11:33.140Z,61.95
2023-01-09T11:12:34.564Z,62.13
2023-01-09T11:13:33.306Z,62.01
2023-01-09T11:14:32.563Z,61.88
2023-01-09T11:15:29.310Z,60.46
2023-01-09T11:16:26.023Z,61.79
2023-01-09T11:17:27.144Z,62.85
2023-01-09T11:18:25.035Z,61.53
2023-01-09T11:19:22.807Z,62.45
2023-01-09T11:20:22.421Z,62.96
2023-01-09T11:21:32.950Z,64.48
2023-01-09T11:22:29.633Z,63.97
2023-01-09T11:23:29.306Z,63.44
2023-01-09T11:24:28.941Z,63.91
2023-01-09T11:25:28.125Z,62.55
2023-01-09T11:26:27.314Z,62.04
2023-01-09T11:27:24.937Z,63.07
2023-01-09T11:28:21.637Z,62.64
2023-01-09T11:29:20.695Z,62.99
2023-01-09T11:30:20.498Z,63.02
2023-01-09T11:31:24.593Z,62.91
2023-01-09T11:32:23.937Z,63.47
2023-01-09T11:33:24.644Z,63.15
2023-01-09T11:34:24.327Z,64.18
2023-01-09T11:35:24.596Z,64.27
2023-01-09T11:36:27.623Z,63.47
2023-01-09T11:37:28.386Z,63.10
2023-01-09T11:38:25.507Z,63.09
2023-01-09T11:39:25.717Z,62.00
2023-01-09T11:40:22.569Z,63.22
2023-01-09T11:41:22.638Z,63.67
2023-01-09T11:42:42.203Z,62.86
2023-01-09T11:43:40.436Z,62.51
2023-01-09T11:44:37.172Z,62.53
2023-01-09T11:45:36.104Z,63.06
2023-01-09T11:46:39.526Z,64.41
2023-01-09T11:47:39.720Z,63.92
2023-01-09T11:48:58.038Z,63.09
2023-01-09T11:50:18.009Z,62.50
2023-01-09T11:51:22.097Z,63.04
2023-01-09T11:52:21.028Z,62.35
2023-01-09T11:53:19.759Z,63.35
2023-01-09T11:54:25.387Z,62.45
2023-01-09T11:55:25.364Z,63.03
2023-01-09T11:56:24.233Z,63.34
2023-01-09T11:57:23.696Z,63.83
2023-01-09T11:58:21.914Z,63.22
2023-01-09T11:59:21.639Z,63.44
2023-01-09T12:00:39.722Z,62.86
2023-01-09T12:01:54.932Z,63.00
2023-01-09T12:03:02.386Z,63.36
2023-01-09T12:04:12.303Z,62.85
2023-01-09T12:05:17.763Z,63.13
2023-01-09T12:06:33.262Z,63.62
2023-01-09T12:07:36.090Z,62.50
2023-01-09T12:08:55.879Z,63.62
2023-01-09T12:10:32.867Z,64.15
2023-01-09T12:11:44.548Z,63.50
2023-01-09T12:13:11.460Z,63.22
2023-01-09T12:14:32.811Z,62.34
2023-01-09T12:16:11.008Z,62.99
2023-01-09T12:17:23.037Z,63.12
2023-01-09T12:18:51.435Z,64.22
2023-01-09T12:19:57.518Z,64.08
2023-01-09T12:21:06.097Z,64.94
2023-01-09T12:22:15.984Z,64.92
2023-01-09T12:23:31.066Z,64.43
2023-01-09T12:24:36.757Z,65.91
2023-01-09T12:26:02.766Z,65.76
2023-01-09T12:27:28.471Z,65.24
2023-01-09T12:28:31.154Z,65.54
2023-01-09T12:30:00.159Z,64.84
2023-01-09T12:31:27.629Z,65.27
2023-01-09T12:32:39.303Z,66.33
2023-01-09T12:34:01.391Z,66.66
2023-01-09T12:35:36.713Z,66.79
2023-01-09T12:36:49.865Z,65.81
2023-01-09T12:38:09.580Z,65.28
2023-01-09T12:39:27.722Z,66.13
2023-01-09T12:40:39.278Z,65.46
2023-01-09T12:41:57.197Z,65.28
2023-01-09T12:42:53.769Z,65.49
2023-01-09T12:44:08.812Z,66.06
2023-01-09T12:45:24.053Z,65.16
2023-01-09T12:46:26.870Z,65.27
2023-01-09T12:47:32.651Z,65.21
2023-01-09T12:48:53.335Z,65.57
2023-01-09T12:49:54.439Z,65.62
2023-01-09T12:51:07.067Z,65.93
2023-01-09T12:52:17.610Z,67.25
2023-01-09T12:53:14.177Z,66.43
2023-01-09T12:54:38.355Z,66.62
2023-01-09T12:55:39.150Z,67.10
2023-01-09T12:56:41.015Z,66.59
2023-01-09T12:57:42.640Z,66.89
2023-01-09T12:58:52.759Z,67.52
2023-01-09T13:00:15.210Z,68.42
2023-01-09T13:01:21.617Z,68.61
2023-01-09T13:02:27.728Z,68.85
2023-01-09T13:03:36.589Z,67.80
2023-01-09T13:04:40.312Z,68.03
2023-01-09T13:05:45.885Z,67.03
2023-01-09T13:06:51.117Z,66.74
2023-01-09T13:08:07.925Z,68.06